Time;durP1;ratioP1;P1;durP2;ratioP2;P2;SDS_P1;SDS_P2;PMS_P1;PMS_P2;Temp;Humidity;BMP_temperature;BMP_pressure;BME280_temperature;BME280_humidity;BME280_pressure;Samples;Min_cycle;Max_cycle;Signal;HPM_P1;HPM_P2
2022/10/06 00:02:18;;;;;;;;;;;19.80;61.10;;;;;;5056253;28;20635;-87
2022/10/06 00:04:43;;;;;;;;;;;19.70;61.90;;;;;;5073602;28;19934;-88
2022/10/06 00:07:09;;;;;;;;;;;19.60;62.10;;;;;;5057228;28;19908;-87
2022/10/06 00:09:34;;;;;;;;;;;19.50;62.30;;;;;;5055187;28;19973;-89
2022/10/06 00:12:00;;;;;;;;;;;19.40;62.70;;;;;;5056294;28;19954;-87
2022/10/06 00:14:25;;;;;;;;;;;19.40;62.90;;;;;;5055629;28;19969;-88
2022/10/06 00:16:51;;;;;;;;;;;19.30;63.10;;;;;;5073292;28;19916;-90
2022/10/06 00:19:16;;;;;;;;;;;19.30;63.40;;;;;;5055562;28;20650;-87
2022/10/06 00:21:42;;;;;;;;;;;19.20;63.50;;;;;;5056433;28;20363;-89
2022/10/06 00:24:08;;;;;;;;;;;19.20;63.70;;;;;;5073509;28;19927;-89
2022/10/06 00:26:33;;;;;;;;;;;19.20;63.70;;;;;;5073890;28;20364;-90
2022/10/06 00:28:59;;;;;;;;;;;19.10;63.80;;;;;;5055515;28;19932;-90
2022/10/06 00:31:25;;;;;;;;;;;19.10;63.90;;;;;;5055381;28;19909;-88
2022/10/06 00:33:50;;;;;;;;;;;19.00;64.10;;;;;;5054863;28;19943;-88
2022/10/06 00:36:16;;;;;;;;;;;19.00;64.10;;;;;;5072937;28;19908;-87
2022/10/06 00:38:41;;;;;;;;;;;19.00;64.20;;;;;;5054811;28;19916;-88
2022/10/06 00:41:09;;;;;;;;;;;19.00;64.20;;;;;;5054900;28;19924;-89
2022/10/06 00:43:49;;;;;;;;;;;19.00;64.30;;;;;;5054761;28;19960;-88
2022/10/06 00:46:15;;;;;;;;;;;18.90;64.40;;;;;;5055364;28;19935;-90
2022/10/06 00:48:41;;;;;;;;;;;18.90;64.40;;;;;;5055415;28;19921;-88
2022/10/06 00:51:07;;;;;;;;;;;18.90;64.40;;;;;;5054967;28;19912;-88
2022/10/06 00:53:33;;;;;;;;;;;18.90;64.50;;;;;;5054947;28;19916;-88
2022/10/06 00:55:59;;;;;;;;;;;18.80;64.60;;;;;;5054598;28;19908;-88
2022/10/06 00:58:24;;;;;;;;;;;18.90;64.70;;;;;;5054337;28;19923;-89
2022/10/06 01:00:53;;;;;;;;;;;18.90;64.70;;;;;;5072929;28;19958;-89
2022/10/06 01:03:28;;;;;;;;;;;18.80;64.70;;;;;;5054252;28;19917;-89
2022/10/06 01:05:54;;;;;;;;;;;18.80;64.90;;;;;;5055079;28;20110;-88
2022/10/06 01:08:21;;;;;;;;;;;18.90;64.80;;;;;;5072866;28;20017;-88
2022/10/06 01:10:47;;;;;;;;;;;18.90;64.80;;;;;;5054400;28;19912;-89
2022/10/06 01:13:13;;;;;;;;;;;18.90;64.80;;;;;;5071955;28;19986;-91
2022/10/06 01:15:40;;;;;;;;;;;18.90;64.80;;;;;;5054728;28;19955;-89
2022/10/06 01:18:12;;;;;;;;;;;19.00;64.70;;;;;;5054043;28;20270;-89
2022/10/06 01:20:39;;;;;;;;;;;19.00;64.70;;;;;;5054149;28;19908;-90
2022/10/06 01:23:05;;;;;;;;;;;18.90;64.90;;;;;;5054929;28;19963;-89
2022/10/06 01:25:35;;;;;;;;;;;19.00;64.90;;;;;;5054975;28;20327;-91
2022/10/06 01:28:01;;;;;;;;;;;19.00;64.80;;;;;;5071854;28;19920;-89
2022/10/06 01:30:27;;;;;;;;;;;19.10;65.00;;;;;;5054301;28;19917;-90
2022/10/06 01:32:52;;;;;;;;;;;19.00;64.90;;;;;;5073831;28;20382;-91
2022/10/06 01:35:18;;;;;;;;;;;19.10;64.90;;;;;;5054132;28;19912;-89
2022/10/06 01:37:43;;;;;;;;;;;19.10;64.70;;;;;;5053839;28;20034;-90
2022/10/06 01:40:09;;;;;;;;;;;19.10;64.60;;;;;;5071978;28;19915;-89
2022/10/06 01:42:35;;;;;;;;;;;19.10;64.50;;;;;;5053352;28;20338;-90
2022/10/06 01:45:01;;;;;;;;;;;19.00;64.30;;;;;;5072543;28;19920;-89
2022/10/06 01:47:26;;;;;;;;;;;19.00;64.00;;;;;;5053823;28;19917;-90
2022/10/06 01:49:52;;;;;;;;;;;18.90;63.90;;;;;;5053867;28;20341;-89
2022/10/06 01:52:18;;;;;;;;;;;18.90;64.30;;;;;;5053109;28;20282;-89
2022/10/06 01:54:44;;;;;;;;;;;18.90;64.50;;;;;;5054771;28;19973;-90
2022/10/06 01:57:10;;;;;;;;;;;19.00;64.70;;;;;;5054107;28;19920;-91
2022/10/06 01:59:36;;;;;;;;;;;19.00;64.90;;;;;;5055226;28;19995;-89
2022/10/06 02:02:03;;;;;;;;;;;19.10;65.00;;;;;;5053232;28;20271;-90
2022/10/06 02:04:29;;;;;;;;;;;19.10;65.00;;;;;;5053305;28;19989;-89
2022/10/06 02:06:54;;;;;;;;;;;19.20;64.90;;;;;;5053703;28;20329;-89
2022/10/06 02:09:23;;;;;;;;;;;19.20;65.00;;;;;;5071764;28;19929;-89
2022/10/06 02:11:49;;;;;;;;;;;19.20;65.10;;;;;;5053057;28;20716;-90
2022/10/06 02:14:16;;;;;;;;;;;19.30;65.00;;;;;;5053381;28;20025;-89
2022/10/06 02:16:42;;;;;;;;;;;19.30;64.90;;;;;;5052958;28;19923;-89
2022/10/06 02:19:08;;;;;;;;;;;19.40;65.00;;;;;;5053019;28;19966;-90
2022/10/06 02:21:34;;;;;;;;;;;19.40;64.90;;;;;;5071539;28;20021;-91
2022/10/06 02:24:00;;;;;;;;;;;19.40;64.80;;;;;;5071519;28;19924;-89
2022/10/06 02:26:26;;;;;;;;;;;19.40;64.70;;;;;;5071137;28;19908;-89
2022/10/06 02:28:51;;;;;;;;;;;19.40;64.60;;;;;;5053038;28;19924;-90
2022/10/06 02:31:17;;;;;;;;;;;19.40;64.60;;;;;;5070792;28;19909;-89
2022/10/06 02:33:43;;;;;;;;;;;19.40;64.60;;;;;;5052522;28;20022;-89
2022/10/06 02:36:10;;;;;;;;;;;19.50;64.60;;;;;;5052998;28;19919;-90
2022/10/06 02:38:36;;;;;;;;;;;19.50;64.50;;;;;;5071006;28;19916;-89
2022/10/06 02:41:02;;;;;;;;;;;19.40;64.50;;;;;;5070874;28;19915;-89
2022/10/06 02:43:30;;;;;;;;;;;19.40;64.30;;;;;;5052727;28;19971;-89
2022/10/06 02:46:03;;;;;;;;;;;19.40;64.40;;;;;;5070597;28;19908;-89
2022/10/06 02:48:28;;;;;;;;;;;19.40;64.40;;;;;;5052615;28;20639;-89
2022/10/06 02:50:55;;;;;;;;;;;19.40;64.50;;;;;;5052705;28;20212;-89
2022/10/06 02:53:21;;;;;;;;;;;19.40;64.40;;;;;;5070678;28;19947;-89
2022/10/06 02:55:47;;;;;;;;;;;19.40;64.50;;;;;;5070882;28;20288;-90
2022/10/06 02:58:12;;;;;;;;;;;19.40;64.50;;;;;;5071069;28;19927;-89
2022/10/06 03:00:38;;;;;;;;;;;19.40;64.50;;;;;;5071475;28;19974;-89
2022/10/06 03:03:04;;;;;;;;;;;19.40;64.50;;;;;;5052644;28;19960;-89
2022/10/06 03:05:30;;;;;;;;;;;19.40;64.50;;;;;;5070171;28;19996;-89
2022/10/06 03:07:55;;;;;;;;;;;19.40;64.50;;;;;;5070389;28;20015;-90
2022/10/06 03:10:21;;;;;;;;;;;19.40;64.30;;;;;;5052727;28;19964;-89
2022/10/06 03:12:47;;;;;;;;;;;19.40;64.50;;;;;;5070816;28;19916;-91
2022/10/06 03:15:12;;;;;;;;;;;19.40;64.40;;;;;;5052696;28;19950;-90
2022/10/06 03:17:38;;;;;;;;;;;19.40;64.40;;;;;;5052111;28;19924;-90
2022/10/06 03:20:04;;;;;;;;;;;19.30;64.10;;;;;;5053766;28;19948;-90
2022/10/06 03:22:29;;;;;;;;;;;19.20;63.50;;;;;;5052085;28;19932;-87
2022/10/06 03:24:55;;;;;;;;;;;19.20;63.00;;;;;;5070334;28;19909;-89
2022/10/06 03:27:21;;;;;;;;;;;19.00;63.00;;;;;;5071480;28;19970;-88
2022/10/06 03:29:47;;;;;;;;;;;18.80;63.30;;;;;;5053150;28;20414;-88
2022/10/06 03:32:12;;;;;;;;;;;18.80;63.50;;;;;;5070722;28;19913;-88
2022/10/06 03:34:38;;;;;;;;;;;18.80;63.60;;;;;;5070447;28;19917;-88
2022/10/06 03:37:03;;;;;;;;;;;18.80;64.10;;;;;;5070348;28;19908;-87
2022/10/06 03:39:29;;;;;;;;;;;18.80;64.20;;;;;;5071023;28;19995;-89
2022/10/06 03:41:55;;;;;;;;;;;18.80;64.30;;;;;;5053010;28;20319;-90
2022/10/06 03:44:21;;;;;;;;;;;18.80;64.40;;;;;;5053141;28;19932;-89
2022/10/06 03:46:47;;;;;;;;;;;18.80;64.40;;;;;;5056153;28;19951;-89
2022/10/06 03:49:13;;;;;;;;;;;18.80;64.50;;;;;;5073952;28;19974;-87
2022/10/06 03:51:39;;;;;;;;;;;18.80;64.60;;;;;;5074150;28;19970;-89
2022/10/06 03:54:09;;;;;;;;;;;18.80;64.40;;;;;;5056022;28;20375;-89
2022/10/06 03:56:36;;;;;;;;;;;18.80;64.30;;;;;;5073482;28;20428;-89
2022/10/06 03:59:06;;;;;;;;;;;18.80;64.30;;;;;;5056329;28;19917;-88
2022/10/06 04:01:36;;;;;;;;;;;18.80;64.10;;;;;;5055603;28;19917;-89
2022/10/06 04:04:02;;;;;;;;;;;18.80;64.20;;;;;;5073867;28;19916;-90
2022/10/06 04:06:29;;;;;;;;;;;18.80;64.10;;;;;;5073569;28;19987;-90
2022/10/06 04:08:55;;;;;;;;;;;18.70;63.60;;;;;;5055393;28;20003;-89
2022/10/06 04:11:25;;;;;;;;;;;18.70;63.10;;;;;;5055624;28;19916;-89
2022/10/06 04:13:53;;;;;;;;;;;18.50;63.00;;;;;;5055437;28;20674;-89
2022/10/06 04:16:20;;;;;;;;;;;18.40;62.50;;;;;;5055296;28;20379;-89
2022/10/06 04:18:48;;;;;;;;;;;18.30;62.40;;;;;;5055417;28;19916;-89
2022/10/06 04:21:14;;;;;;;;;;;18.10;62.20;;;;;;5073060;28;20283;-89
2022/10/06 04:23:39;;;;;;;;;;;18.00;62.40;;;;;;5056292;28;19917;-88
2022/10/06 04:26:08;;;;;;;;;;;17.80;62.40;;;;;;5055393;28;19921;-88
2022/10/06 04:28:35;;;;;;;;;;;17.80;62.40;;;;;;5074680;28;20038;-88
2022/10/06 04:31:01;;;;;;;;;;;17.70;62.30;;;;;;5063270;28;19923;-88
2022/10/06 04:33:27;;;;;;;;;;;17.60;62.70;;;;;;5087956;28;20011;-87
2022/10/06 04:35:57;;;;;;;;;;;17.50;62.60;;;;;;5056081;28;20003;-89
2022/10/06 04:38:22;;;;;;;;;;;17.40;62.60;;;;;;5073361;28;20298;-88
2022/10/06 04:40:48;;;;;;;;;;;17.30;62.40;;;;;;5073567;28;19913;-87
2022/10/06 04:43:14;;;;;;;;;;;17.20;62.60;;;;;;5058355;28;19965;-89
2022/10/06 04:45:39;;;;;;;;;;;17.20;62.90;;;;;;5088003;28;19908;-89
2022/10/06 04:48:05;;;;;;;;;;;17.10;62.80;;;;;;5062037;28;19917;-87
2022/10/06 04:50:31;;;;;;;;;;;17.00;62.70;;;;;;5050112;28;19925;-88
2022/10/06 04:52:56;;;;;;;;;;;17.00;62.70;;;;;;5083764;28;19912;-88
2022/10/06 04:55:22;;;;;;;;;;;16.90;62.80;;;;;;5074307;28;19919;-88
2022/10/06 04:57:47;;;;;;;;;;;16.80;62.80;;;;;;5093645;28;20018;-89
2022/10/06 05:00:24;;;;;;;;;;;16.80;62.50;;;;;;5075300;28;19908;-87
2022/10/06 05:02:52;;;;;;;;;;;16.70;62.60;;;;;;5072596;28;20545;-88
2022/10/06 05:05:17;;;;;;;;;;;16.70;62.60;;;;;;5051952;28;19913;-88
2022/10/06 05:07:44;;;;;;;;;;;16.60;62.60;;;;;;5066424;28;20493;-87
2022/10/06 05:10:09;;;;;;;;;;;16.60;62.70;;;;;;5067971;28;20453;-88
2022/10/06 05:12:35;;;;;;;;;;;16.50;62.70;;;;;;5064720;28;20094;-89
2022/10/06 05:15:01;;;;;;;;;;;16.50;62.80;;;;;;5034710;28;20050;-89
2022/10/06 05:17:27;;;;;;;;;;;16.40;62.90;;;;;;5050982;28;19968;-87
2022/10/06 05:19:52;;;;;;;;;;;16.40;62.80;;;;;;5054827;28;20354;-89
2022/10/06 05:22:18;;;;;;;;;;;16.40;62.90;;;;;;5034455;28;19916;-88
2022/10/06 05:24:44;;;;;;;;;;;16.30;62.90;;;;;;5036760;28;19958;-88
2022/10/06 05:27:09;;;;;;;;;;;16.30;63.10;;;;;;5052855;28;19909;-88
2022/10/06 05:29:35;;;;;;;;;;;16.30;63.20;;;;;;5034220;28;19921;-88
2022/10/06 05:32:01;;;;;;;;;;;16.30;63.20;;;;;;5052226;28;19913;-88
2022/10/06 05:34:27;;;;;;;;;;;16.30;63.40;;;;;;5068249;28;19954;-87
2022/10/06 05:36:52;;;;;;;;;;;16.20;63.30;;;;;;5073106;28;19915;-88
2022/10/06 05:39:18;;;;;;;;;;;16.20;63.30;;;;;;5054141;28;20326;-88
2022/10/06 05:41:44;;;;;;;;;;;16.20;63.20;;;;;;5072001;28;20389;-90
2022/10/06 05:44:11;;;;;;;;;;;16.20;63.10;;;;;;5072598;28;19917;-88
2022/10/06 05:46:36;;;;;;;;;;;16.20;63.50;;;;;;5054826;28;19913;-88
2022/10/06 05:49:03;;;;;;;;;;;16.20;63.40;;;;;;5033740;28;19956;-88
2022/10/06 05:51:30;;;;;;;;;;;16.20;63.50;;;;;;5050829;28;19909;-88
2022/10/06 05:53:55;;;;;;;;;;;16.20;63.80;;;;;;5035431;28;19917;-89
2022/10/06 05:56:22;;;;;;;;;;;16.30;64.00;;;;;;5051592;28;20043;-88
2022/10/06 05:58:49;;;;;;;;;;;16.40;64.30;;;;;;5036744;28;19917;-89
2022/10/06 06:01:17;;;;;;;;;;;16.50;64.70;;;;;;5035885;28;19913;-89
2022/10/06 06:03:45;;;;;;;;;;;16.70;65.00;;;;;;5054218;28;19920;-89
2022/10/06 06:06:15;;;;;;;;;;;16.70;64.70;;;;;;5052463;28;19913;-89
2022/10/06 06:08:41;;;;;;;;;;;16.80;64.30;;;;;;5034345;28;20016;-88
2022/10/06 06:11:07;;;;;;;;;;;16.90;64.20;;;;;;5052025;28;19944;-88
2022/10/06 06:13:33;;;;;;;;;;;17.00;65.10;;;;;;5034705;28;19952;-87
2022/10/06 06:15:59;;;;;;;;;;;17.30;65.90;;;;;;5051271;28;19975;-87
2022/10/06 06:18:25;;;;;;;;;;;17.50;66.50;;;;;;5029754;28;20351;-88
2022/10/06 06:20:56;;;;;;;;;;;17.80;66.90;;;;;;5051466;28;20354;-87
2022/10/06 06:23:22;;;;;;;;;;;18.20;67.40;;;;;;5051725;28;20427;-88
2022/10/06 06:26:05;;;;;;;;;;;18.60;67.60;;;;;;5051308;28;19909;-88
2022/10/06 06:28:32;;;;;;;;;;;18.90;67.70;;;;;;5047948;28;19916;-88
2022/10/06 06:31:10;;;;;;;;;;;19.30;67.80;;;;;;5036021;28;19924;-89
2022/10/06 06:33:37;;;;;;;;;;;19.60;68.10;;;;;;5052447;28;19999;-89
2022/10/06 06:36:10;;;;;;;;;;;20.00;68.30;;;;;;5054900;28;19976;-88
2022/10/06 06:38:36;;;;;;;;;;;20.40;68.50;;;;;;5029506;28;19916;-89
2022/10/06 06:41:01;;;;;;;;;;;20.70;68.30;;;;;;5054274;28;19920;-88
2022/10/06 06:43:27;;;;;;;;;;;21.10;68.30;;;;;;5053127;28;19917;-89
2022/10/06 06:46:00;;;;;;;;;;;21.40;68.20;;;;;;5034275;28;19925;-89
2022/10/06 06:48:26;;;;;;;;;;;21.80;67.90;;;;;;5047797;28;20008;-87
2022/10/06 06:50:56;;;;;;;;;;;22.10;68.00;;;;;;5032642;28;20411;-88
2022/10/06 06:53:21;;;;;;;;;;;22.40;67.70;;;;;;5052772;28;20270;-88
2022/10/06 06:55:49;;;;;;;;;;;22.80;67.40;;;;;;5051231;28;20430;-88
2022/10/06 06:58:16;;;;;;;;;;;23.10;66.40;;;;;;5029818;28;19964;-88
2022/10/06 07:00:41;;;;;;;;;;;23.30;66.00;;;;;;5051636;28;19909;-88
2022/10/06 07:03:10;;;;;;;;;;;23.60;66.20;;;;;;5051895;28;20019;-88
2022/10/06 07:05:38;;;;;;;;;;;23.90;65.90;;;;;;5033553;28;20367;-88
2022/10/06 07:08:05;;;;;;;;;;;24.20;65.30;;;;;;5031368;28;19925;-88
2022/10/06 07:10:34;;;;;;;;;;;24.50;64.80;;;;;;5049672;28;19921;-87
2022/10/06 07:13:00;;;;;;;;;;;24.70;64.20;;;;;;5033576;28;19921;-89
2022/10/06 07:26:23;;;;;;;;;;;26.10;61.20;;;;;;5073882;28;19992;-86
2022/10/06 07:28:49;;;;;;;;;;;26.30;60.70;;;;;;5062141;28;19924;-88
2022/10/06 07:31:18;;;;;;;;;;;26.60;60.60;;;;;;5058053;28;19955;-88
2022/10/06 07:33:44;;;;;;;;;;;26.80;59.60;;;;;;5055897;28;19931;-89
2022/10/06 07:36:10;;;;;;;;;;;27.00;60.40;;;;;;5073821;28;19913;-86
2022/10/06 07:38:36;;;;;;;;;;;27.30;60.40;;;;;;5057131;28;19917;-87
2022/10/06 07:41:02;;;;;;;;;;;27.50;60.40;;;;;;5036330;28;20594;-87
2022/10/06 07:43:28;;;;;;;;;;;27.80;59.80;;;;;;5057231;28;19917;-89
2022/10/06 07:45:55;;;;;;;;;;;28.00;58.90;;;;;;5054145;28;19913;-87
2022/10/06 07:48:22;;;;;;;;;;;28.30;59.20;;;;;;5048953;28;19920;-89
2022/10/06 07:50:48;;;;;;;;;;;28.50;58.90;;;;;;5057099;28;19913;-89
2022/10/06 07:53:16;;;;;;;;;;;28.70;57.20;;;;;;5065571;28;19921;-88
2022/10/06 07:55:43;;;;;;;;;;;28.90;55.30;;;;;;5032948;28;19913;-87
2022/10/06 07:58:17;;;;;;;;;;;29.10;56.50;;;;;;5019800;28;19932;-89
2022/10/06 08:00:43;;;;;;;;;;;29.20;53.30;;;;;;5056615;28;19917;-86
2022/10/06 08:03:10;;;;;;;;;;;29.30;54.70;;;;;;5053226;28;19913;-88
2022/10/06 08:05:37;;;;;;;;;;;29.50;54.30;;;;;;5036387;28;19928;-89
2022/10/06 08:08:04;;;;;;;;;;;29.60;51.70;;;;;;5052525;28;19921;-89
2022/10/06 08:10:29;;;;;;;;;;;29.80;54.60;;;;;;5055628;28;20279;-88
2022/10/06 08:12:55;;;;;;;;;;;29.90;53.10;;;;;;5035464;28;20011;-86
2022/10/06 08:15:20;;;;;;;;;;;29.80;51.90;;;;;;5035710;28;20665;-90
2022/10/06 08:17:46;;;;;;;;;;;29.90;50.90;;;;;;5053162;28;19932;-88
2022/10/06 08:20:13;;;;;;;;;;;30.10;52.40;;;;;;5034786;28;19908;-88
2022/10/06 08:22:39;;;;;;;;;;;30.30;49.80;;;;;;5055449;28;19931;-90
2022/10/06 08:25:06;;;;;;;;;;;30.20;45.70;;;;;;5036970;28;20327;-89
2022/10/06 08:27:33;;;;;;;;;;;30.30;47.60;;;;;;5051836;28;20302;-87
2022/10/06 08:29:58;;;;;;;;;;;30.40;47.70;;;;;;5055413;28;19924;-87
2022/10/06 08:32:24;;;;;;;;;;;30.60;46.90;;;;;;5051696;28;19920;-88
2022/10/06 08:34:50;;;;;;;;;;;30.80;46.20;;;;;;5066971;28;20007;-89
2022/10/06 08:37:16;;;;;;;;;;;30.90;44.30;;;;;;5078575;28;20256;-88
2022/10/06 08:39:41;;;;;;;;;;;31.10;44.10;;;;;;5058348;28;19935;-88
2022/10/06 08:42:11;;;;;;;;;;;31.20;42.10;;;;;;5039788;28;19909;-90
2022/10/06 08:44:41;;;;;;;;;;;31.20;42.10;;;;;;5053018;28;19916;-88
2022/10/06 08:47:18;;;;;;;;;;;31.30;43.50;;;;;;5053187;28;19917;-88
2022/10/06 08:49:48;;;;;;;;;;;31.50;42.00;;;;;;5030497;28;20443;-86
2022/10/06 08:52:22;;;;;;;;;;;31.30;39.40;;;;;;5040379;28;19966;-87
2022/10/06 08:54:51;;;;;;;;;;;31.20;40.10;;;;;;5038804;28;19917;-90
2022/10/06 08:57:19;;;;;;;;;;;31.00;40.40;;;;;;5036057;28;19978;-87
2022/10/06 08:59:46;;;;;;;;;;;30.70;38.50;;;;;;5049207;28;19947;-88
2022/10/06 09:02:20;;;;;;;;;;;30.40;38.80;;;;;;5035425;28;19912;-87
2022/10/06 09:04:48;;;;;;;;;;;30.20;39.90;;;;;;5053957;28;19960;-87
2022/10/06 09:07:15;;;;;;;;;;;30.00;40.20;;;;;;5034543;28;19912;-89
2022/10/06 09:10:00;;;;;;;;;;;29.90;40.40;;;;;;5029527;28;19951;-88
2022/10/06 09:12:28;;;;;;;;;;;30.00;40.20;;;;;;5034973;28;20003;-87
2022/10/06 09:15:13;;;;;;;;;;;30.10;40.70;;;;;;5035843;28;19923;-88
2022/10/06 09:17:41;;;;;;;;;;;30.30;39.10;;;;;;5031544;28;20282;-88
2022/10/06 09:20:14;;;;;;;;;;;30.30;37.40;;;;;;5053449;28;19917;-87
2022/10/06 09:22:40;;;;;;;;;;;30.50;38.10;;;;;;5034182;28;19917;-89
2022/10/06 09:25:24;;;;;;;;;;;30.60;36.90;;;;;;5051017;28;19917;-87
2022/10/06 09:27:56;;;;;;;;;;;30.80;37.20;;;;;;5047424;28;19972;-87
2022/10/06 09:30:22;;;;;;;;;;;31.00;37.30;;;;;;5035071;28;19925;-86
2022/10/06 09:32:56;;;;;;;;;;;31.20;36.70;;;;;;5033648;28;19916;-88
2022/10/06 09:35:23;;;;;;;;;;;31.50;36.20;;;;;;5036441;28;19917;-88
2022/10/06 09:37:52;;;;;;;;;;;31.70;35.80;;;;;;5032947;28;20314;-86
2022/10/06 09:40:37;;;;;;;;;;;31.80;33.00;;;;;;5057764;28;19944;-90
2022/10/06 09:43:15;;;;;;;;;;;31.90;33.00;;;;;;5035612;28;20291;-87
2022/10/06 09:45:41;;;;;;;;;;;31.70;32.10;;;;;;5034113;28;19921;-88
2022/10/06 09:48:26;;;;;;;;;;;31.60;32.30;;;;;;5047645;28;19964;-91
2022/10/06 09:51:05;;;;;;;;;;;31.70;32.20;;;;;;5015718;28;19925;-91
2022/10/06 09:53:31;;;;;;;;;;;31.90;32.50;;;;;;5038625;28;19920;-91
2022/10/06 09:55:56;;;;;;;;;;;32.10;32.00;;;;;;5033558;28;19912;-87
2022/10/06 09:58:29;;;;;;;;;;;32.00;31.50;;;;;;5027943;28;19913;-87
2022/10/06 10:00:58;;;;;;;;;;;32.20;31.70;;;;;;5052290;28;19986;-89
2022/10/06 10:03:25;;;;;;;;;;;32.40;30.70;;;;;;5034715;28;19920;-86
2022/10/06 10:05:53;;;;;;;;;;;32.50;29.60;;;;;;5035976;28;19916;-88
2022/10/06 10:08:20;;;;;;;;;;;32.70;29.10;;;;;;5029890;28;19916;-88
2022/10/06 10:10:48;;;;;;;;;;;32.80;28.40;;;;;;5033707;28;19921;-89
2022/10/06 10:13:37;;;;;;;;;;;32.90;28.40;;;;;;5032896;28;19916;-87
2022/10/06 10:16:02;;;;;;;;;;;33.10;28.50;;;;;;5032395;28;19924;-87
2022/10/06 10:18:30;;;;;;;;;;;33.30;28.60;;;;;;5047262;28;19909;-87
2022/10/06 10:20:59;;;;;;;;;;;33.60;28.00;;;;;;5050591;28;20423;-89
2022/10/06 10:23:29;;;;;;;;;;;33.80;27.90;;;;;;5051779;28;19920;-88
2022/10/06 10:25:57;;;;;;;;;;;34.00;27.40;;;;;;5038188;28;19965;-89
2022/10/06 10:28:31;;;;;;;;;;;34.30;26.90;;;;;;5047904;28;20576;-87
2022/10/06 10:30:56;;;;;;;;;;;34.40;26.90;;;;;;5053690;28;19925;-88
2022/10/06 10:33:30;;;;;;;;;;;34.30;26.60;;;;;;5034888;28;19916;-89
2022/10/06 10:36:00;;;;;;;;;;;34.00;26.50;;;;;;5053410;28;20322;-91
2022/10/06 10:38:27;;;;;;;;;;;33.80;26.80;;;;;;5033830;28;19995;-87
2022/10/06 10:40:58;;;;;;;;;;;33.90;26.50;;;;;;5050922;28;20434;-91
2022/10/06 10:43:30;;;;;;;;;;;34.00;26.40;;;;;;5054265;28;19912;-88
2022/10/06 10:45:56;;;;;;;;;;;34.30;26.60;;;;;;5052975;28;20044;-91
2022/10/06 10:48:28;;;;;;;;;;;34.60;26.30;;;;;;5051127;28;19952;-87
2022/10/06 10:51:00;;;;;;;;;;;34.80;26.20;;;;;;5036072;28;19975;-89
2022/10/06 10:53:38;;;;;;;;;;;35.10;25.90;;;;;;5033429;28;19912;-87
2022/10/06 10:56:06;;;;;;;;;;;35.30;25.30;;;;;;5053723;28;19920;-89
2022/10/06 10:58:34;;;;;;;;;;;35.50;24.80;;;;;;5032706;28;20003;-88
2022/10/06 11:01:18;;;;;;;;;;;35.60;24.50;;;;;;5033587;28;20378;-90
2022/10/06 11:03:55;;;;;;;;;;;35.80;24.50;;;;;;5034885;28;19909;-86
2022/10/06 11:06:27;;;;;;;;;;;35.90;23.80;;;;;;5035737;28;19928;-88
2022/10/06 11:08:56;;;;;;;;;;;36.00;23.50;;;;;;5033090;28;19958;-89
2022/10/06 11:11:45;;;;;;;;;;;36.00;23.30;;;;;;5033485;28;20494;-89
2022/10/06 11:14:32;;;;;;;;;;;35.90;22.20;;;;;;5034472;28;19913;-86
2022/10/06 11:17:15;;;;;;;;;;;35.70;22.10;;;;;;5055715;28;19912;-89
2022/10/06 11:19:55;;;;;;;;;;;35.50;21.50;;;;;;5034401;28;20025;-88
2022/10/06 11:22:33;;;;;;;;;;;35.00;21.20;;;;;;5033641;28;19913;-91
2022/10/06 11:24:58;;;;;;;;;;;34.80;21.70;;;;;;5050812;28;19923;-89
2022/10/06 11:27:32;;;;;;;;;;;34.60;22.10;;;;;;5032895;28;20355;-87
2022/10/06 11:30:05;;;;;;;;;;;34.60;22.30;;;;;;5054245;28;20399;-87
2022/10/06 11:32:31;;;;;;;;;;;34.60;22.50;;;;;;5051989;28;19913;-90
2022/10/06 11:34:57;;;;;;;;;;;34.50;22.10;;;;;;5032779;28;19923;-88
2022/10/06 11:37:43;;;;;;;;;;;34.30;21.60;;;;;;5051078;28;19908;-85
2022/10/06 11:40:15;;;;;;;;;;;34.10;21.60;;;;;;5032804;28;20257;-87
2022/10/06 11:43:01;;;;;;;;;;;33.90;22.10;;;;;;5033530;28;20358;-90
2022/10/06 11:45:39;;;;;;;;;;;33.80;22.60;;;;;;5001592;28;20016;-89
2022/10/06 11:48:19;;;;;;;;;;;33.80;22.30;;;;;;5033720;28;19909;-88
2022/10/06 11:50:48;;;;;;;;;;;33.70;22.30;;;;;;5050604;28;19933;-86
2022/10/06 11:53:22;;;;;;;;;;;33.50;22.10;;;;;;5033687;28;19923;-89
2022/10/06 11:56:08;;;;;;;;;;;33.40;22.00;;;;;;5032794;28;20310;-88
2022/10/06 11:58:57;;;;;;;;;;;33.30;22.20;;;;;;5033346;28;19916;-92
2022/10/06 12:01:42;;;;;;;;;;;33.10;22.30;;;;;;5030602;28;19917;-92
2022/10/06 12:04:08;;;;;;;;;;;32.90;22.50;;;;;;5034043;28;19909;-88
2022/10/06 12:06:46;;;;;;;;;;;32.80;22.90;;;;;;5052788;28;19916;-88
2022/10/06 12:09:30;;;;;;;;;;;32.90;23.00;;;;;;5054050;28;19921;-89
2022/10/06 12:12:00;;;;;;;;;;;32.80;22.80;;;;;;5036686;28;20364;-89
2022/10/06 12:14:32;;;;;;;;;;;32.70;22.20;;;;;;5053998;28;19951;-86
2022/10/06 12:17:05;;;;;;;;;;;32.40;22.00;;;;;;5036290;28;19927;-89
2022/10/06 12:19:49;;;;;;;;;;;32.20;22.50;;;;;;5038431;28;19928;-88
2022/10/06 12:22:26;;;;;;;;;;;32.10;22.70;;;;;;5038119;28;19916;-88
2022/10/06 12:24:57;;;;;;;;;;;31.90;22.80;;;;;;5057495;28;19916;-88
2022/10/06 12:27:26;;;;;;;;;;;31.80;23.00;;;;;;5054180;28;19974;-90
2022/10/06 12:29:58;;;;;;;;;;;31.50;23.40;;;;;;5053433;28;20377;-89
2022/10/06 12:32:36;;;;;;;;;;;31.30;23.70;;;;;;5055352;28;19920;-90
2022/10/06 12:35:11;;;;;;;;;;;31.30;24.00;;;;;;5053474;28;19947;-87
2022/10/06 12:37:43;;;;;;;;;;;31.30;24.20;;;;;;5053998;28;19985;-88
2022/10/06 12:40:28;;;;;;;;;;;31.30;24.30;;;;;;5057767;28;19967;-87
2022/10/06 12:43:08;;;;;;;;;;;31.10;24.30;;;;;;5056210;28;19909;-93
2022/10/06 12:45:34;;;;;;;;;;;30.70;24.50;;;;;;5063391;28;20261;-87
2022/10/06 12:48:01;;;;;;;;;;;30.60;24.60;;;;;;5036161;28;19932;-90
2022/10/06 12:50:27;;;;;;;;;;;30.60;24.70;;;;;;5054590;28;20713;-90
2022/10/06 12:52:56;;;;;;;;;;;30.40;24.50;;;;;;5037866;28;19916;-91
2022/10/06 12:55:27;;;;;;;;;;;30.00;24.70;;;;;;5054794;28;19921;-90
2022/10/06 12:57:53;;;;;;;;;;;29.50;25.30;;;;;;5055909;28;19992;-86
2022/10/06 13:00:33;;;;;;;;;;;28.90;25.70;;;;;;5056987;28;19960;-88
2022/10/06 13:03:01;;;;;;;;;;;28.30;26.20;;;;;;5054339;28;20007;-89
2022/10/06 13:05:27;;;;;;;;;;;27.80;26.90;;;;;;5036123;28;19917;-90
2022/10/06 13:07:58;;;;;;;;;;;27.30;27.40;;;;;;5049788;28;19940;-91
2022/10/06 13:10:25;;;;;;;;;;;26.90;27.60;;;;;;5057027;28;19925;-87
2022/10/06 13:12:51;;;;;;;;;;;26.60;28.10;;;;;;5073585;28;19908;-88
2022/10/06 13:15:29;;;;;;;;;;;26.30;28.50;;;;;;5059771;28;19916;-89
2022/10/06 13:18:01;;;;;;;;;;;26.00;28.90;;;;;;5057545;28;19960;-87
2022/10/06 13:20:31;;;;;;;;;;;25.80;29.40;;;;;;5075136;28;19939;-86
2022/10/06 13:22:57;;;;;;;;;;;25.60;29.80;;;;;;5074268;28;19962;-91
2022/10/06 13:25:32;;;;;;;;;;;25.40;30.10;;;;;;5073668;28;19967;-87
2022/10/06 13:28:01;;;;;;;;;;;25.30;30.20;;;;;;5074668;28;20345;-86
2022/10/06 13:30:26;;;;;;;;;;;25.10;30.30;;;;;;5057286;28;20527;-86
2022/10/06 13:32:54;;;;;;;;;;;24.90;30.20;;;;;;5070269;28;21101;-89
2022/10/06 13:35:21;;;;;;;;;;;24.70;30.20;;;;;;5071355;28;20363;-87
2022/10/06 13:37:47;;;;;;;;;;;24.70;30.40;;;;;;5072393;28;20359;-90
2022/10/06 13:40:14;;;;;;;;;;;24.60;30.70;;;;;;5051820;28;19923;-89
2022/10/06 13:42:40;;;;;;;;;;;24.40;30.80;;;;;;5071562;28;19912;-89
2022/10/06 13:45:13;;;;;;;;;;;24.40;30.80;;;;;;5059066;28;19913;-88
2022/10/06 13:47:39;;;;;;;;;;;24.30;31.00;;;;;;5050742;28;19975;-89
2022/10/06 13:50:06;;;;;;;;;;;24.30;31.20;;;;;;5032372;28;19964;-86
2022/10/06 13:52:47;;;;;;;;;;;24.20;31.40;;;;;;5052255;28;19919;-92
2022/10/06 13:55:16;;;;;;;;;;;24.20;31.50;;;;;;5059818;28;19974;-89
2022/10/06 13:58:05;;;;;;;;;;;24.20;31.60;;;;;;5045404;28;19916;-91
2022/10/06 14:00:31;;;;;;;;;;;24.10;31.70;;;;;;5052898;28;19917;-88
2022/10/06 14:03:08;;;;;;;;;;;24.00;31.30;;;;;;5057096;28;19936;-88
2022/10/06 14:05:40;;;;;;;;;;;24.00;31.30;;;;;;5052328;28;19913;-90
2022/10/06 14:08:09;;;;;;;;;;;23.90;31.50;;;;;;5031687;28;19959;-88
2022/10/06 14:10:54;;;;;;;;;;;23.80;31.80;;;;;;5031492;28;19921;-88
2022/10/06 14:13:40;;;;;;;;;;;23.80;31.90;;;;;;5035029;28;19948;-88
2022/10/06 14:16:09;;;;;;;;;;;23.80;32.20;;;;;;5024558;28;19919;-89
2022/10/06 14:18:39;;;;;;;;;;;23.80;32.50;;;;;;5050417;28;19923;-89
2022/10/06 14:21:17;;;;;;;;;;;23.80;32.60;;;;;;5048584;28;19939;-89
2022/10/06 14:23:48;;;;;;;;;;;23.80;32.70;;;;;;5073333;28;19913;-89
2022/10/06 14:26:14;;;;;;;;;;;23.70;32.70;;;;;;5054061;28;20266;-89
2022/10/06 14:28:45;;;;;;;;;;;23.70;32.80;;;;;;5052670;28;19939;-91
2022/10/06 14:31:11;;;;;;;;;;;23.70;32.90;;;;;;5071864;28;19920;-88
2022/10/06 14:33:36;;;;;;;;;;;23.70;32.90;;;;;;5063885;28;19912;-92
2022/10/06 14:36:02;;;;;;;;;;;23.60;32.70;;;;;;5034841;28;19913;-88
2022/10/06 14:38:28;;;;;;;;;;;23.50;32.60;;;;;;5050892;28;19913;-90